Time;durP1;ratioP1;P1;durP2;ratioP2;P2;SDS_P1;SDS_P2;PMS_P1;PMS_P2;Temp;Humidity;BMP_temperature;BMP_pressure;BME280_temperature;BME280_humidity;BME280_pressure;Samples;Min_cycle;Max_cycle;Signal;HPM_P1;HPM_P2
2023/07/19 00:01:20;;;;;;;;;;;17.30;99.90;;;;;;5135671;27;20273;-45
2023/07/19 00:03:45;;;;;;;;;;;17.30;99.90;;;;;;5135608;27;19908;-46
2023/07/19 00:06:11;;;;;;;;;;;17.30;99.90;;;;;;5134614;27;20388;-45
2023/07/19 00:08:36;;;;;;;;;;;17.30;99.90;;;;;;5135574;27;19908;-45
2023/07/19 00:11:02;;;;;;;;;;;17.30;99.90;;;;;;5154094;27;19937;-46
2023/07/19 00:13:27;;;;;;;;;;;17.30;99.90;;;;;;5155512;27;19914;-46
2023/07/19 00:15:53;;;;;;;;;;;17.30;99.90;;;;;;5156138;27;19952;-48
2023/07/19 00:18:18;;;;;;;;;;;17.20;99.90;;;;;;5155788;27;19907;-46
2023/07/19 00:20:44;;;;;;;;;;;17.20;99.90;;;;;;5154929;27;19976;-44
2023/07/19 00:23:10;;;;;;;;;;;17.20;99.90;;;;;;5155982;27;19911;-45
2023/07/19 00:25:35;;;;;;;;;;;17.20;99.90;;;;;;5155332;27;19907;-45
2023/07/19 00:28:01;;;;;;;;;;;17.10;99.90;;;;;;5156028;27;20430;-45
2023/07/19 00:30:26;;;;;;;;;;;17.10;99.90;;;;;;5155457;27;19911;-44
2023/07/19 00:32:52;;;;;;;;;;;17.00;99.90;;;;;;5154787;27;19919;-45
2023/07/19 00:35:18;;;;;;;;;;;17.00;99.90;;;;;;5155891;27;19933;-44
2023/07/19 00:37:44;;;;;;;;;;;17.00;99.90;;;;;;5155706;27;19915;-44
2023/07/19 00:40:09;;;;;;;;;;;17.00;99.90;;;;;;5143415;27;19920;-45
2023/07/19 00:42:35;;;;;;;;;;;17.00;99.90;;;;;;5150007;27;19998;-49
2023/07/19 00:45:00;;;;;;;;;;;17.00;99.90;;;;;;5155136;27;19911;-45
2023/07/19 00:47:27;;;;;;;;;;;16.90;99.90;;;;;;5154760;27;19911;-46
2023/07/19 00:49:52;;;;;;;;;;;16.90;99.90;;;;;;5155106;27;20426;-45
2023/07/19 00:52:18;;;;;;;;;;;16.90;99.90;;;;;;5155246;27;20005;-46
2023/07/19 00:54:45;;;;;;;;;;;16.90;99.90;;;;;;5154586;27;20437;-46
2023/07/19 00:57:10;;;;;;;;;;;16.90;99.90;;;;;;5155311;27;19911;-45
2023/07/19 00:59:36;;;;;;;;;;;16.90;99.90;;;;;;5155044;27;20354;-45
2023/07/19 01:02:01;;;;;;;;;;;16.90;99.90;;;;;;5154303;27;19918;-46
2023/07/19 01:04:29;;;;;;;;;;;16.90;99.90;;;;;;5155175;27;20276;-48
2023/07/19 01:06:55;;;;;;;;;;;16.80;99.90;;;;;;5155036;27;20012;-44
2023/07/19 01:09:21;;;;;;;;;;;16.90;99.90;;;;;;5150946;27;20457;-43
2023/07/19 01:11:46;;;;;;;;;;;16.80;99.90;;;;;;5134294;27;19969;-45
2023/07/19 01:14:12;;;;;;;;;;;16.90;99.90;;;;;;5134200;27;19959;-44
2023/07/19 01:16:38;;;;;;;;;;;16.80;99.90;;;;;;5133332;27;20388;-46
2023/07/19 01:19:04;;;;;;;;;;;16.90;99.90;;;;;;5134137;27;19908;-46
2023/07/19 01:21:29;;;;;;;;;;;16.90;99.90;;;;;;5134130;27;20405;-47
2023/07/19 01:23:55;;;;;;;;;;;16.90;99.90;;;;;;5133360;27;19914;-44
2023/07/19 01:26:21;;;;;;;;;;;17.00;99.90;;;;;;5134242;27;20354;-46
2023/07/19 01:28:46;;;;;;;;;;;17.00;99.90;;;;;;5134121;27;20010;-46
2023/07/19 01:31:14;;;;;;;;;;;16.90;99.90;;;;;;5132477;27;19960;-45
2023/07/19 01:33:40;;;;;;;;;;;16.90;99.90;;;;;;5134999;27;19918;-47
2023/07/19 01:36:05;;;;;;;;;;;16.90;99.90;;;;;;5133116;27;20006;-47
2023/07/19 01:38:31;;;;;;;;;;;17.00;99.90;;;;;;5133958;27;19908;-44
2023/07/19 01:40:56;;;;;;;;;;;16.90;99.90;;;;;;5133613;27;20392;-45
2023/07/19 01:43:22;;;;;;;;;;;16.90;99.90;;;;;;5133066;27;19908;-46
2023/07/19 01:45:48;;;;;;;;;;;17.00;99.90;;;;;;5133628;27;20005;-45
2023/07/19 01:48:13;;;;;;;;;;;17.00;99.90;;;;;;5133652;27;19971;-45
2023/07/19 01:50:39;;;;;;;;;;;17.00;99.90;;;;;;5132951;27;19915;-48
2023/07/19 01:53:04;;;;;;;;;;;17.00;99.90;;;;;;5133627;27;20342;-46
2023/07/19 01:55:30;;;;;;;;;;;17.00;99.90;;;;;;5133778;27;20017;-45
2023/07/19 01:57:55;;;;;;;;;;;17.00;99.90;;;;;;5132917;28;20327;-45
2023/07/19 02:00:21;;;;;;;;;;;17.00;99.90;;;;;;5133582;28;20010;-44
2023/07/19 02:02:46;;;;;;;;;;;16.90;99.90;;;;;;5133682;28;19929;-46
2023/07/19 02:05:12;;;;;;;;;;;17.00;99.90;;;;;;5144315;27;19981;-46
2023/07/19 02:07:37;;;;;;;;;;;16.90;99.90;;;;;;5154252;27;19907;-46
2023/07/19 02:10:03;;;;;;;;;;;17.00;99.90;;;;;;5154286;27;19911;-48
2023/07/19 02:12:29;;;;;;;;;;;16.90;99.90;;;;;;5153398;27;19919;-44
2023/07/19 02:14:55;;;;;;;;;;;16.90;99.90;;;;;;5153865;27;19934;-45
2023/07/19 02:17:20;;;;;;;;;;;17.00;99.90;;;;;;5154202;27;19907;-46
2023/07/19 02:19:46;;;;;;;;;;;16.90;99.90;;;;;;5153395;27;20044;-45
2023/07/19 02:22:12;;;;;;;;;;;17.00;99.90;;;;;;5154161;27;19911;-44
2023/07/19 02:24:37;;;;;;;;;;;17.00;99.90;;;;;;5153590;27;20371;-47
2023/07/19 02:27:03;;;;;;;;;;;17.00;99.90;;;;;;5153320;27;19908;-45
2023/07/19 02:29:28;;;;;;;;;;;17.00;99.90;;;;;;5154107;27;20405;-46
2023/07/19 02:31:54;;;;;;;;;;;17.00;99.90;;;;;;5154004;27;19915;-45
2023/07/19 02:34:20;;;;;;;;;;;17.00;99.90;;;;;;5152946;27;20396;-45
2023/07/19 02:36:47;;;;;;;;;;;17.00;99.90;;;;;;5154166;27;19918;-45
2023/07/19 02:39:12;;;;;;;;;;;17.00;99.90;;;;;;5153269;27;19914;-51
2023/07/19 02:41:38;;;;;;;;;;;17.00;99.90;;;;;;5153796;27;20017;-44
2023/07/19 02:44:03;;;;;;;;;;;17.00;99.90;;;;;;5157378;27;19911;-45
2023/07/19 02:46:29;;;;;;;;;;;17.00;99.90;;;;;;5157293;27;19914;-45
2023/07/19 02:48:54;;;;;;;;;;;17.00;99.90;;;;;;5157727;27;19939;-45
2023/07/19 02:51:20;;;;;;;;;;;16.90;99.90;;;;;;5157748;27;20274;-45
2023/07/19 02:53:46;;;;;;;;;;;16.90;99.90;;;;;;5156483;27;19936;-47
2023/07/19 02:56:11;;;;;;;;;;;16.90;99.90;;;;;;5139179;27;19919;-46
2023/07/19 02:58:37;;;;;;;;;;;16.80;99.90;;;;;;5136967;27;20289;-45
2023/07/19 03:01:02;;;;;;;;;;;16.90;99.90;;;;;;5136716;27;20168;-47
2023/07/19 03:03:29;;;;;;;;;;;16.80;99.90;;;;;;5157230;27;19911;-46
2023/07/19 03:05:55;;;;;;;;;;;16.80;99.90;;;;;;5157533;27;19953;-46
2023/07/19 03:08:20;;;;;;;;;;;16.70;99.90;;;;;;5156761;27;19958;-46
2023/07/19 03:10:47;;;;;;;;;;;16.70;99.90;;;;;;5157468;27;19907;-48
2023/07/19 03:13:12;;;;;;;;;;;16.70;99.90;;;;;;5156929;27;19959;-45
2023/07/19 03:15:37;;;;;;;;;;;16.70;99.90;;;;;;5156600;27;19946;-45
2023/07/19 03:18:03;;;;;;;;;;;16.60;99.90;;;;;;5157234;27;20273;-48
2023/07/19 03:20:29;;;;;;;;;;;16.60;99.90;;;;;;5157350;27;19907;-44
2023/07/19 03:22:55;;;;;;;;;;;16.60;99.90;;;;;;5139434;27;20010;-46
2023/07/19 03:25:21;;;;;;;;;;;16.60;99.90;;;;;;5136558;27;19914;-44
2023/07/19 03:27:46;;;;;;;;;;;16.60;99.90;;;;;;5136063;27;19914;-44
2023/07/19 03:30:12;;;;;;;;;;;16.60;99.90;;;;;;5135513;27;20004;-46
2023/07/19 03:32:37;;;;;;;;;;;16.50;99.90;;;;;;5149165;27;19919;-47
2023/07/19 03:35:03;;;;;;;;;;;16.50;99.90;;;;;;5156957;27;19907;-45
2023/07/19 03:37:28;;;;;;;;;;;16.50;99.90;;;;;;5156125;27;20005;-45
2023/07/19 03:39:54;;;;;;;;;;;16.50;99.90;;;;;;5151399;27;19955;-45
2023/07/19 03:42:20;;;;;;;;;;;16.50;99.90;;;;;;5123219;27;19911;-45
2023/07/19 03:44:47;;;;;;;;;;;16.60;99.90;;;;;;5118056;27;20330;-49
2023/07/19 03:47:12;;;;;;;;;;;16.60;99.90;;;;;;5129940;27;19961;-44
2023/07/19 03:49:38;;;;;;;;;;;16.60;99.90;;;;;;5114776;27;20425;-45
2023/07/19 03:52:04;;;;;;;;;;;16.60;99.90;;;;;;5115228;28;19916;-46
2023/07/19 03:54:29;;;;;;;;;;;16.60;99.90;;;;;;5114754;28;19908;-47
2023/07/19 03:56:55;;;;;;;;;;;16.60;99.90;;;;;;5114427;28;19943;-47
2023/07/19 03:59:20;;;;;;;;;;;16.50;99.90;;;;;;5115271;28;19912;-45
2023/07/19 04:01:46;;;;;;;;;;;16.50;99.90;;;;;;5137002;27;19919;-45
2023/07/19 04:04:11;;;;;;;;;;;16.50;99.90;;;;;;5155546;27;20002;-46
2023/07/19 04:06:37;;;;;;;;;;;16.50;99.90;;;;;;5156436;27;19907;-45
2023/07/19 04:09:02;;;;;;;;;;;16.50;99.90;;;;;;5156294;27;19907;-46
2023/07/19 04:11:28;;;;;;;;;;;16.50;99.90;;;;;;5155030;27;19919;-46
2023/07/19 04:13:54;;;;;;;;;;;16.40;99.90;;;;;;5156138;27;19930;-45
2023/07/19 04:16:19;;;;;;;;;;;16.40;99.90;;;;;;5156165;27;19907;-44
2023/07/19 04:18:45;;;;;;;;;;;16.40;99.90;;;;;;5155378;27;19911;-47
2023/07/19 04:21:10;;;;;;;;;;;16.40;99.90;;;;;;5155331;27;20013;-45
2023/07/19 04:23:36;;;;;;;;;;;16.40;99.90;;;;;;5156010;27;19907;-45
2023/07/19 04:26:01;;;;;;;;;;;16.40;99.90;;;;;;5155222;27;19914;-48
2023/07/19 04:28:27;;;;;;;;;;;16.50;99.90;;;;;;5155929;27;20342;-46
2023/07/19 04:30:52;;;;;;;;;;;16.50;99.90;;;;;;5155306;27;19911;-47
2023/07/19 04:33:19;;;;;;;;;;;16.50;99.90;;;;;;5154978;27;20002;-49
2023/07/19 04:35:44;;;;;;;;;;;16.40;99.90;;;;;;5155769;27;19907;-46
2023/07/19 04:38:10;;;;;;;;;;;16.50;99.90;;;;;;5155701;27;19914;-45
2023/07/19 04:40:35;;;;;;;;;;;16.50;99.90;;;;;;5154151;27;19964;-44
2023/07/19 04:43:01;;;;;;;;;;;16.50;99.90;;;;;;5155492;27;19915;-44
2023/07/19 04:45:27;;;;;;;;;;;16.50;99.90;;;;;;5155664;27;19998;-47
2023/07/19 04:47:52;;;;;;;;;;;16.50;99.90;;;;;;5154748;27;19953;-45
2023/07/19 04:50:17;;;;;;;;;;;16.50;99.90;;;;;;5155115;27;19994;-46
2023/07/19 04:52:45;;;;;;;;;;;16.50;99.90;;;;;;5155264;27;20281;-49
2023/07/19 04:55:11;;;;;;;;;;;16.60;99.90;;;;;;5154559;27;19960;-47
2023/07/19 04:57:37;;;;;;;;;;;16.60;99.90;;;;;;5155212;27;19907;-44
2023/07/19 05:00:05;;;;;;;;;;;16.60;99.90;;;;;;5154008;27;19951;-51
2023/07/19 05:02:30;;;;;;;;;;;16.60;99.90;;;;;;5114054;28;19989;-46
2023/07/19 05:04:56;;;;;;;;;;;16.70;99.90;;;;;;5113067;28;19908;-45
2023/07/19 05:07:21;;;;;;;;;;;16.70;99.90;;;;;;5113078;28;19907;-45
2023/07/19 05:09:47;;;;;;;;;;;16.70;99.90;;;;;;5140695;27;19930;-47
2023/07/19 05:12:12;;;;;;;;;;;16.70;99.90;;;;;;5142427;27;20361;-45
2023/07/19 05:14:38;;;;;;;;;;;16.80;99.90;;;;;;5133371;27;19908;-47
2023/07/19 05:17:03;;;;;;;;;;;16.80;99.90;;;;;;5124927;27;19914;-44
2023/07/19 05:19:29;;;;;;;;;;;16.80;99.90;;;;;;5121424;27;19912;-45
2023/07/19 05:21:55;;;;;;;;;;;16.80;99.90;;;;;;5128681;27;19912;-45
2023/07/19 05:24:21;;;;;;;;;;;16.80;99.90;;;;;;5114761;27;20153;-48
2023/07/19 05:26:47;;;;;;;;;;;16.80;99.90;;;;;;5113593;28;20237;-45
2023/07/19 05:29:12;;;;;;;;;;;16.80;99.90;;;;;;5129176;27;19950;-45
2023/07/19 05:31:38;;;;;;;;;;;16.80;99.90;;;;;;5154782;27;19940;-45
2023/07/19 05:34:03;;;;;;;;;;;16.80;99.90;;;;;;5154594;27;19915;-45
2023/07/19 05:36:29;;;;;;;;;;;16.80;99.90;;;;;;5154057;27;19914;-46
2023/07/19 05:38:55;;;;;;;;;;;16.80;99.90;;;;;;5152439;27;19907;-46
2023/07/19 05:41:20;;;;;;;;;;;16.80;99.90;;;;;;5153640;27;19986;-46
2023/07/19 05:43:46;;;;;;;;;;;16.80;99.90;;;;;;5154003;27;19915;-46
2023/07/19 05:46:11;;;;;;;;;;;16.90;99.90;;;;;;5154543;27;19911;-44
2023/07/19 05:48:37;;;;;;;;;;;16.90;99.90;;;;;;5151681;27;19919;-49
2023/07/19 05:51:04;;;;;;;;;;;16.90;99.90;;;;;;5133903;27;20312;-45
2023/07/19 05:53:30;;;;;;;;;;;16.90;99.90;;;;;;5133862;27;19911;-47
2023/07/19 05:55:56;;;;;;;;;;;16.90;99.90;;;;;;5133666;28;19915;-43
2023/07/19 05:58:22;;;;;;;;;;;16.90;99.90;;;;;;5133120;27;20289;-46
2023/07/19 06:00:48;;;;;;;;;;;16.90;99.90;;;;;;5154482;27;20307;-46
2023/07/19 06:03:16;;;;;;;;;;;17.00;99.90;;;;;;5153551;27;19929;-44
2023/07/19 06:05:44;;;;;;;;;;;17.00;99.90;;;;;;5154411;27;19911;-46
2023/07/19 06:08:10;;;;;;;;;;;17.00;99.90;;;;;;5130535;27;19960;-46
2023/07/19 06:10:36;;;;;;;;;;;17.00;99.90;;;;;;5141652;27;19964;-45
2023/07/19 06:13:03;;;;;;;;;;;17.10;99.90;;;;;;5133485;28;19919;-45
2023/07/19 06:15:29;;;;;;;;;;;17.10;99.90;;;;;;5133783;28;20011;-46
2023/07/19 06:17:54;;;;;;;;;;;17.10;99.90;;;;;;5134117;27;22160;-43
2023/07/19 06:20:20;;;;;;;;;;;17.10;99.90;;;;;;5131731;27;20289;-44
2023/07/19 06:22:45;;;;;;;;;;;17.00;99.90;;;;;;5129812;27;19958;-46
2023/07/19 06:25:11;;;;;;;;;;;17.00;99.90;;;;;;5137917;27;19911;-48
2023/07/19 06:27:37;;;;;;;;;;;17.00;99.90;;;;;;5145212;27;19911;-44
2023/07/19 06:30:02;;;;;;;;;;;17.00;99.90;;;;;;5148683;27;19918;-44
2023/07/19 06:32:28;;;;;;;;;;;16.90;99.90;;;;;;5136637;27;19926;-44
2023/07/19 06:34:53;;;;;;;;;;;16.90;99.90;;;;;;5138195;27;19907;-46
2023/07/19 06:37:19;;;;;;;;;;;16.90;99.90;;;;;;5151915;27;19911;-45
2023/07/19 06:39:46;;;;;;;;;;;16.90;99.90;;;;;;5145288;27;19911;-45
2023/07/19 06:42:11;;;;;;;;;;;16.90;99.90;;;;;;5134402;27;19926;-45
2023/07/19 06:44:37;;;;;;;;;;;17.00;99.90;;;;;;5137420;27;20343;-43
2023/07/19 06:47:03;;;;;;;;;;;16.90;99.90;;;;;;5147057;27;19907;-45
2023/07/19 06:49:29;;;;;;;;;;;17.00;99.90;;;;;;5138434;27;19962;-43
2023/07/19 06:51:55;;;;;;;;;;;17.10;99.90;;;;;;5147609;27;19963;-45
2023/07/19 06:54:20;;;;;;;;;;;17.10;99.90;;;;;;5148891;27;19947;-44
2023/07/19 06:56:46;;;;;;;;;;;17.10;99.90;;;;;;5135149;27;19916;-44
2023/07/19 06:59:11;;;;;;;;;;;17.10;99.90;;;;;;5141201;27;20002;-46
2023/07/19 07:01:37;;;;;;;;;;;17.10;99.90;;;;;;5147470;27;19911;-47
2023/07/19 07:04:02;;;;;;;;;;;17.10;99.90;;;;;;5140713;27;19922;-44
2023/07/19 07:06:28;;;;;;;;;;;17.20;99.90;;;;;;5142335;27;19907;-44
2023/07/19 07:08:54;;;;;;;;;;;17.20;99.90;;;;;;5145197;27;19918;-46
2023/07/19 07:11:19;;;;;;;;;;;17.20;99.90;;;;;;5149770;27;19927;-45
2023/07/19 07:13:45;;;;;;;;;;;17.30;99.90;;;;;;5128642;27;19964;-44
2023/07/19 07:16:12;;;;;;;;;;;17.30;99.90;;;;;;5136598;27;19911;-44
2023/07/19 07:18:37;;;;;;;;;;;17.40;99.90;;;;;;5151136;27;19907;-43
2023/07/19 07:21:03;;;;;;;;;;;17.40;99.90;;;;;;5156376;27;20266;-48
2023/07/19 07:23:28;;;;;;;;;;;17.50;99.90;;;;;;5155669;27;20254;-44
2023/07/19 07:25:54;;;;;;;;;;;17.60;99.90;;;;;;5147845;27;19915;-45
2023/07/19 07:28:20;;;;;;;;;;;17.70;99.90;;;;;;5139569;27;19992;-44
2023/07/19 07:30:46;;;;;;;;;;;17.80;99.90;;;;;;5141926;27;19982;-43
2023/07/19 07:33:11;;;;;;;;;;;17.80;99.90;;;;;;5141249;27;19927;-47
2023/07/19 07:35:37;;;;;;;;;;;17.90;99.90;;;;;;5146799;27;19911;-45
2023/07/19 07:38:03;;;;;;;;;;;17.80;99.90;;;;;;5139370;27;20251;-45
2023/07/19 07:40:28;;;;;;;;;;;17.80;99.90;;;;;;5145572;27;20285;-45
2023/07/19 07:42:54;;;;;;;;;;;17.70;99.90;;;;;;5136924;27;19911;-46
2023/07/19 07:45:19;;;;;;;;;;;17.70;99.90;;;;;;5130879;27;19915;-45
2023/07/19 07:47:45;;;;;;;;;;;17.80;99.90;;;;;;5131824;27;20278;-45
2023/07/19 07:50:10;;;;;;;;;;;17.80;99.90;;;;;;5132476;27;19915;-45
2023/07/19 07:52:36;;;;;;;;;;;17.80;99.90;;;;;;5134061;27;20222;-45
2023/07/19 07:55:01;;;;;;;;;;;17.80;99.90;;;;;;5138689;27;19915;-44
2023/07/19 07:57:30;;;;;;;;;;;17.80;99.90;;;;;;5134979;27;20002;-44
2023/07/19 07:59:55;;;;;;;;;;;17.90;99.90;;;;;;5127992;27;19915;-46
2023/07/19 08:02:21;;;;;;;;;;;17.90;99.90;;;;;;5118479;27;19922;-45
2023/07/19 08:04:47;;;;;;;;;;;17.90;99.90;;;;;;5123678;27;19907;-49
2023/07/19 08:07:13;;;;;;;;;;;18.00;99.90;;;;;;5118380;27;19914;-45
2023/07/19 08:09:38;;;;;;;;;;;18.00;99.90;;;;;;5115028;28;19998;-43
2023/07/19 08:12:04;;;;;;;;;;;18.10;99.90;;;;;;5125754;27;19930;-45
2023/07/19 08:14:30;;;;;;;;;;;18.20;99.90;;;;;;5156229;27;19914;-48
2023/07/19 08:16:55;;;;;;;;;;;18.20;99.90;;;;;;5155234;27;20377;-48
2023/07/19 08:19:21;;;;;;;;;;;18.20;99.90;;;;;;5141041;27;20119;-44
2023/07/19 08:21:46;;;;;;;;;;;18.30;99.90;;;;;;5127882;27;19958;-45
2023/07/19 08:24:12;;;;;;;;;;;18.30;99.90;;;;;;5114557;27;19931;-46
2023/07/19 08:26:38;;;;;;;;;;;18.30;99.90;;;;;;5114773;28;20002;-44
2023/07/19 08:29:03;;;;;;;;;;;18.40;99.90;;;;;;5114642;28;19908;-43
2023/07/19 08:31:29;;;;;;;;;;;18.50;99.90;;;;;;5129862;27;19923;-45
2023/07/19 08:33:54;;;;;;;;;;;18.50;99.90;;;;;;5128257;27;19930;-45
2023/07/19 08:36:20;;;;;;;;;;;18.50;99.90;;;;;;5152276;27;19911;-45
2023/07/19 08:38:46;;;;;;;;;;;18.60;99.90;;;;;;5155145;27;19990;-49
2023/07/19 08:41:12;;;;;;;;;;;18.50;99.90;;;;;;5140217;27;19927;-43
2023/07/19 08:43:38;;;;;;;;;;;18.60;99.90;;;;;;5119449;27;19912;-47
2023/07/19 08:46:04;;;;;;;;;;;18.60;99.90;;;;;;5141097;27;19912;-48
2023/07/19 08:48:31;;;;;;;;;;;18.50;99.90;;;;;;5129137;27;19916;-44
2023/07/19 08:50:58;;;;;;;;;;;18.60;99.90;;;;;;5121834;27;19911;-43
2023/07/19 08:53:24;;;;;;;;;;;18.70;99.90;;;;;;5131174;27;19920;-45
2023/07/19 08:55:50;;;;;;;;;;;18.80;99.90;;;;;;5149310;27;19915;-44
2023/07/19 08:58:17;;;;;;;;;;;18.80;99.90;;;;;;5155290;27;20266;-43
2023/07/19 09:00:42;;;;;;;;;;;18.80;99.90;;;;;;5154774;27;20368;-45
2023/07/19 09:03:09;;;;;;;;;;;18.80;99.90;;;;;;5155209;27;19907;-43
2023/07/19 09:05:35;;;;;;;;;;;18.90;99.90;;;;;;5143226;27;19912;-45
2023/07/19 09:08:01;;;;;;;;;;;19.00;99.90;;;;;;5133764;27;19908;-46
2023/07/19 09:10:28;;;;;;;;;;;19.10;99.90;;;;;;5134572;27;19931;-48
2023/07/19 09:12:54;;;;;;;;;;;19.10;99.90;;;;;;5134378;27;20298;-44
2023/07/19 09:15:20;;;;;;;;;;;19.20;99.90;;;;;;5141029;27;19918;-44
2023/07/19 09:17:46;;;;;;;;;;;19.20;99.90;;;;;;5141217;27;19913;-47
2023/07/19 09:20:12;;;;;;;;;;;19.10;99.90;;;;;;5133518;27;20052;-46
2023/07/19 09:22:38;;;;;;;;;;;19.10;99.90;;;;;;5134374;27;19998;-45
2023/07/19 09:25:11;;;;;;;;;;;19.10;99.90;;;;;;5134098;27;20274;-45
2023/07/19 09:27:36;;;;;;;;;;;19.00;99.90;;;;;;5133580;27;19907;-44
2023/07/19 09:30:03;;;;;;;;;;;19.00;99.90;;;;;;5134024;27;19919;-45
2023/07/19 09:32:29;;;;;;;;;;;19.00;99.90;;;;;;5133944;27;19998;-45
2023/07/19 09:34:55;;;;;;;;;;;19.00;99.90;;;;;;5133386;27;19919;-45
2023/07/19 09:37:24;;;;;;;;;;;18.90;99.90;;;;;;5134162;27;19908;-43
2023/07/19 09:39:50;;;;;;;;;;;18.90;99.90;;;;;;5133961;27;19914;-47
2023/07/19 09:42:17;;;;;;;;;;;18.90;99.90;;;;;;5133079;27;20020;-48
2023/07/19 09:44:45;;;;;;;;;;;19.10;99.90;;;;;;5133899;27;19907;-45
2023/07/19 09:47:10;;;;;;;;;;;19.30;99.90;;;;;;5133763;27;19915;-44
2023/07/19 09:49:39;;;;;;;;;;;19.40;99.90;;;;;;5133185;27;19937;-45
2023/07/19 09:52:05;;;;;;;;;;;19.50;99.90;;;;;;5133312;27;20373;-43
2023/07/19 09:54:31;;;;;;;;;;;19.50;99.90;;;;;;5133655;27;19908;-43
2023/07/19 09:56:56;;;;;;;;;;;19.40;99.90;;;;;;5132952;28;19957;-45
2023/07/19 09:59:27;;;;;;;;;;;19.40;99.90;;;;;;5133734;28;19908;-44
2023/07/19 10:01:52;;;;;;;;;;;19.20;99.90;;;;;;5133697;28;19914;-45
2023/07/19 10:04:25;;;;;;;;;;;19.20;99.90;;;;;;5132810;27;19911;-44
2023/07/19 10:07:03;;;;;;;;;;;19.20;99.90;;;;;;5133715;28;19935;-45
2023/07/19 10:09:28;;;;;;;;;;;19.20;99.90;;;;;;5132994;28;19907;-44
2023/07/19 10:11:57;;;;;;;;;;;19.30;99.90;;;;;;5133504;28;19919;-43
2023/07/19 10:14:26;;;;;;;;;;;19.40;99.90;;;;;;5133638;27;19907;-44
2023/07/19 10:17:01;;;;;;;;;;;19.40;99.90;;;;;;5132742;28;19911;-44
2023/07/19 10:19:27;;;;;;;;;;;19.50;99.90;;;;;;5133662;28;19960;-44
2023/07/19 10:22:02;;;;;;;;;;;19.70;99.90;;;;;;5126578;28;19915;-43
2023/07/19 10:24:28;;;;;;;;;;;19.90;99.90;;;;;;5128643;27;19920;-45
2023/07/19 10:26:54;;;;;;;;;;;20.10;99.90;;;;;;5130028;27;20330;-44
2023/07/19 10:29:22;;;;;;;;;;;20.20;99.90;;;;;;5144596;27;19912;-46
2023/07/19 10:31:48;;;;;;;;;;;20.30;99.90;;;;;;5142432;27;19912;-46
2023/07/19 10:34:13;;;;;;;;;;;20.30;99.90;;;;;;5134327;27;19918;-45
2023/07/19 10:36:46;;;;;;;;;;;20.30;99.90;;;;;;5145807;27;19920;-45
2023/07/19 10:39:11;;;;;;;;;;;20.30;99.90;;;;;;5133161;27;19947;-45
2023/07/19 10:41:37;;;;;;;;;;;20.40;99.90;;;;;;5114032;28;20019;-44
2023/07/19 10:44:02;;;;;;;;;;;20.50;99.90;;;;;;5115286;28;19914;-44
2023/07/19 10:46:28;;;;;;;;;;;20.50;99.90;;;;;;5112039;28;20278;-45
2023/07/19 10:48:54;;;;;;;;;;;20.50;99.90;;;;;;5125811;27;19911;-46
2023/07/19 10:51:20;;;;;;;;;;;20.50;99.90;;;;;;5132575;27;20281;-43
2023/07/19 10:53:56;;;;;;;;;;;20.50;99.90;;;;;;5122900;28;19915;-47
2023/07/19 10:56:22;;;;;;;;;;;20.40;99.90;;;;;;5115000;28;20004;-49
2023/07/19 10:58:47;;;;;;;;;;;20.40;99.90;;;;;;5129349;27;20393;-45
2023/07/19 11:01:13;;;;;;;;;;;20.30;99.90;;;;;;5134865;27;20311;-46
2023/07/19 11:03:39;;;;;;;;;;;20.10;99.90;;;;;;5128721;27;19912;-45
2023/07/19 11:06:07;;;;;;;;;;;19.90;99.90;;;;;;5123847;27;20274;-44
2023/07/19 11:08:32;;;;;;;;;;;19.80;99.90;;;;;;5128105;27;19911;-45
2023/07/19 11:10:58;;;;;;;;;;;19.70;99.90;;;;;;5157463;27;19914;-47
2023/07/19 11:13:24;;;;;;;;;;;19.50;99.90;;;;;;5154508;27;20280;-43
2023/07/19 11:15:50;;;;;;;;;;;19.40;99.90;;;;;;5135800;27;19915;-47
2023/07/19 11:18:36;;;;;;;;;;;19.30;99.90;;;;;;5136452;27;20002;-47
2023/07/19 11:21:02;;;;;;;;;;;19.10;99.90;;;;;;5135243;27;20378;-44
2023/07/19 11:23:28;;;;;;;;;;;18.90;99.90;;;;;;5138856;27;19919;-45
2023/07/19 11:26:04;;;;;;;;;;;18.60;99.90;;;;;;5156931;27;19915;-42
2023/07/19 11:28:33;;;;;;;;;;;18.40;99.90;;;;;;5152725;27;19915;-43
2023/07/19 11:30:59;;;;;;;;;;;18.20;99.90;;;;;;5147785;27;19915;-44
2023/07/19 11:33:26;;;;;;;;;;;18.20;99.90;;;;;;5141903;27;20301;-44
2023/07/19 11:35:52;;;;;;;;;;;18.20;99.90;;;;;;5156352;27;19915;-47
2023/07/19 11:38:18;;;;;;;;;;;18.30;99.90;;;;;;5143236;27;19915;-44
2023/07/19 11:40:43;;;;;;;;;;;18.40;99.90;;;;;;5148391;27;19938;-49
2023/07/19 11:43:09;;;;;;;;;;;18.50;99.90;;;;;;5156202;27;19915;-45
2023/07/19 11:45:34;;;;;;;;;;;18.60;99.90;;;;;;5143221;27;20021;-44
2023/07/19 11:48:03;;;;;;;;;;;18.80;99.90;;;;;;5154844;27;19929;-43
2023/07/19 11:50:29;;;;;;;;;;;18.90;99.90;;;;;;5138692;27;19965;-43
2023/07/19 11:52:56;;;;;;;;;;;18.90;99.90;;;;;;5156601;27;19915;-43
2023/07/19 11:55:22;;;;;;;;;;;19.10;99.90;;;;;;5148159;27;19939;-44
2023/07/19 11:57:48;;;;;;;;;;;19.30;99.90;;;;;;5131503;27;20362;-44
2023/07/19 12:00:17;;;;;;;;;;;19.30;99.90;;;;;;5115072;28;19911;-48
2023/07/19 12:02:46;;;;;;;;;;;19.30;99.90;;;;;;5113741;28;19915;-45
2023/07/19 12:05:13;;;;;;;;;;;19.20;99.90;;;;;;5118765;27;19915;-43
2023/07/19 12:07:38;;;;;;;;;;;19.10;99.90;;;;;;5134716;27;20267;-45
2023/07/19 12:10:04;;;;;;;;;;;19.10;99.90;;;;;;5133467;27;19918;-43
2023/07/19 12:12:33;;;;;;;;;;;19.00;99.90;;;;;;5134988;27;19968;-47
2023/07/19 12:14:59;;;;;;;;;;;18.90;99.90;;;;;;5131745;27;19918;-44
2023/07/19 12:17:25;;;;;;;;;;;18.80;99.90;;;;;;5128684;27;19923;-44
2023/07/19 12:19:52;;;;;;;;;;;18.80;99.90;;;;;;5129735;27;19916;-43
2023/07/19 12:22:18;;;;;;;;;;;18.70;99.90;;;;;;5132065;27;19911;-46
2023/07/19 12:24:43;;;;;;;;;;;18.80;99.90;;;;;;5112473;27;19999;-44
2023/07/19 12:27:09;;;;;;;;;;;18.90;99.90;;;;;;5116551;27;19912;-44
2023/07/19 12:29:34;;;;;;;;;;;19.00;99.90;;;;;;5131359;27;19907;-43
2023/07/19 12:32:00;;;;;;;;;;;19.10;99.90;;;;;;5132645;27;19915;-47
2023/07/19 12:34:26;;;;;;;;;;;19.20;99.90;;;;;;5134578;27;19919;-45
2023/07/19 12:36:52;;;;;;;;;;;19.30;99.90;;;;;;5130467;27;19953;-45
2023/07/19 12:39:18;;;;;;;;;;;19.40;99.90;;;;;;5119223;27;19999;-43
2023/07/19 12:41:44;;;;;;;;;;;19.50;99.90;;;;;;5136115;27;19926;-45
2023/07/19 12:44:09;;;;;;;;;;;19.60;99.90;;;;;;5139175;27;19915;-45
2023/07/19 12:46:35;;;;;;;;;;;19.60;99.90;;;;;;5135383;27;19929;-44
2023/07/19 12:49:01;;;;;;;;;;;19.70;99.90;;;;;;5134426;27;20097;-44
2023/07/19 12:51:26;;;;;;;;;;;19.70;99.90;;;;;;5133535;27;19915;-45
2023/07/19 12:53:52;;;;;;;;;;;19.70;99.90;;;;;;5143870;27;19968;-45
2023/07/19 12:56:18;;;;;;;;;;;19.60;99.90;;;;;;5134326;27;19916;-44
2023/07/19 12:58:43;;;;;;;;;;;19.50;99.90;;;;;;5123764;27;20285;-45
2023/07/19 13:01:09;;;;;;;;;;;19.40;99.90;;;;;;5120514;27;19912;-44
2023/07/19 13:03:34;;;;;;;;;;;19.30;99.90;;;;;;5116828;27;19918;-45
2023/07/19 13:06:00;;;;;;;;;;;19.20;99.90;;;;;;5143901;27;20318;-43
2023/07/19 13:08:25;;;;;;;;;;;19.10;99.90;;;;;;5129605;27;19912;-48
2023/07/19 13:10:51;;;;;;;;;;;18.90;99.90;;;;;;5115170;27;20362;-44
2023/07/19 13:13:16;;;;;;;;;;;18.90;99.90;;;;;;5123924;27;19920;-43
2023/07/19 13:15:42;;;;;;;;;;;18.80;99.90;;;;;;5110129;27;19927;-43
2023/07/19 13:18:07;;;;;;;;;;;18.80;99.90;;;;;;5113685;27;20047;-44
2023/07/19 13:20:33;;;;;;;;;;;18.80;99.90;;;;;;5120427;27;19934;-45
2023/07/19 13:23:00;;;;;;;;;;;18.80;99.90;;;;;;5122379;27;20285;-42
2023/07/19 13:25:26;;;;;;;;;;;18.80;99.90;;;;;;5124621;27;19908;-43
2023/07/19 13:27:51;;;;;;;;;;;18.90;99.90;;;;;;5134330;27;19918;-44
2023/07/19 13:30:17;;;;;;;;;;;18.90;99.90;;;;;;5137166;27;19911;-43
2023/07/19 13:32:42;;;;;;;;;;;19.10;99.90;;;;;;5137417;27;20075;-49
2023/07/19 13:35:08;;;;;;;;;;;19.20;99.90;;;;;;5129390;27;19931;-44
2023/07/19 13:37:33;;;;;;;;;;;19.30;99.90;;;;;;5122371;27;20381;-44
2023/07/19 13:39:59;;;;;;;;;;;19.50;99.90;;;;;;5128254;27;19995;-45
2023/07/19 13:42:25;;;;;;;;;;;19.60;99.90;;;;;;5126769;27;20362;-47
2023/07/19 13:44:51;;;;;;;;;;;19.70;99.90;;;;;;5123138;27;20514;-47
2023/07/19 13:47:17;;;;;;;;;;;19.70;99.90;;;;;;5127007;27;19912;-45
2023/07/19 13:49:43;;;;;;;;;;;19.80;99.90;;;;;;5118704;28;19915;-45
2023/07/19 13:52:08;;;;;;;;;;;19.80;99.90;;;;;;5120787;27;19963;-45
2023/07/19 13:54:35;;;;;;;;;;;19.80;99.90;;;;;;5127217;27;19939;-44
2023/07/19 13:57:01;;;;;;;;;;;19.70;99.90;;;;;;5132014;27;19912;-46
2023/07/19 13:59:26;;;;;;;;;;;19.60;99.90;;;;;;5130322;27;19916;-44
2023/07/19 14:01:52;;;;;;;;;;;19.60;99.90;;;;;;5119471;28;20457;-45
2023/07/19 14:04:17;;;;;;;;;;;19.60;99.90;;;;;;5126366;27;19988;-46
2023/07/19 14:06:43;;;;;;;;;;;19.60;99.90;;;;;;5124072;28;20451;-47
2023/07/19 14:09:08;;;;;;;;;;;19.60;99.90;;;;;;5125267;27;19912;-44